Aviation Digital Data Service (ADDS)

Output produced by METARs form (1219 UTC 15 December 2017)
found at http://aviationweather.gov/adds/metars/
 
KLGA 151128Z 1512/1618 30007KT P6SM SCT250 
     FM151400 27005KT P6SM FEW040 BKN150 
     FM151700 24005KT P6SM SCT030 BKN050 
     FM152000 26006KT 2SM -SN SCT015 OVC025 
     TEMPO 1520/1524 1/2SM SN BKN015 
     FM160200 27009KT P6SM SCT035 BKN070 
     FM160400 28011KT P6SM SCT150 
     FM160700 27014G20KT P6SM FEW070 FEW250 
     FM161500 27017G25KT P6SM FEW250